createdAt,value
2016-03-23T00:03:11.318Z,4.2
2016-03-23T00:06:23.278Z,4.2
2016-03-23T00:09:35.086Z,4.2
2016-03-23T00:12:51.938Z,4.2
2016-03-23T00:15:53.915Z,4.2
2016-03-23T00:19:05.752Z,4.3
2016-03-23T00:22:17.635Z,4.3
2016-03-23T00:25:27.033Z,4.3
2016-03-23T00:28:36.607Z,4.3
2016-03-23T00:31:55.508Z,4.3
2016-03-23T00:34:57.329Z,4.2
2016-03-23T00:38:05.696Z,4.2
2016-03-23T00:41:17.626Z,4.3
2016-03-23T00:44:27.775Z,4.3
2016-03-23T00:47:37.597Z,4.3
2016-03-23T00:50:54.387Z,4.2
2016-03-23T00:53:56.489Z,4.3
2016-03-23T00:57:08.388Z,4.3
2016-03-23T01:00:19.068Z,4.3
2016-03-23T01:03:30.813Z,4.3
2016-03-23T01:06:42.399Z,4.3
2016-03-23T01:09:54.531Z,4.3
2016-03-23T01:13:06.103Z,4.3
2016-03-23T01:16:14.048Z,4.2
2016-03-23T01:19:25.791Z,4.2
2016-03-23T01:22:35.192Z,4.2
2016-03-23T01:25:48.872Z,4.2
2016-03-23T01:28:55.708Z,4.2
2016-03-23T01:31:57.466Z,4.2
2016-03-23T01:35:08.225Z,4.2
2016-03-23T01:38:16.810Z,4.1
2016-03-23T01:41:28.834Z,4.1
2016-03-23T01:44:36.970Z,4.1
2016-03-23T01:47:50.025Z,4.1
2016-03-23T01:50:56.923Z,4.1
2016-03-23T01:53:58.728Z,4.1
2016-03-23T01:57:08.143Z,4.1
2016-03-23T02:00:24.120Z,4.1
2016-03-23T02:03:27.691Z,4.1
2016-03-23T02:06:41.655Z,4.1
2016-03-23T02:09:53.307Z,4
2016-03-23T02:13:02.910Z,4
2016-03-23T02:16:14.573Z,4
2016-03-23T02:19:26.160Z,4
2016-03-23T02:22:38.176Z,4
2016-03-23T02:25:54.107Z,4
2016-03-23T02:28:56.083Z,4
2016-03-23T02:32:07.889Z,4
2016-03-23T02:35:18.583Z,4
2016-03-23T02:38:29.420Z,4
2016-03-23T02:41:41.149Z,3.9
2016-03-23T02:44:57.845Z,3.8
2016-03-23T02:47:59.682Z,3.8
2016-03-23T02:51:11.626Z,3.8
2016-03-23T02:54:21.541Z,3.8
2016-03-23T02:57:33.303Z,3.9
2016-03-23T03:00:50.169Z,3.9
2016-03-23T03:03:57.286Z,3.8
2016-03-23T03:06:59.327Z,3.8
2016-03-23T03:10:11.350Z,3.8
2016-03-23T03:13:22.623Z,3.8
2016-03-23T03:16:33.197Z,3.8
2016-03-23T03:19:42.783Z,3.8
2016-03-23T03:22:54.634Z,3.8
2016-03-23T03:26:04.439Z,3.7
2016-03-23T03:29:16.433Z,3.7
2016-03-23T03:32:28.300Z,3.7
2016-03-23T03:35:40.186Z,3.7
2016-03-23T03:38:55.147Z,3.6
2016-03-23T03:41:56.999Z,3.6
2016-03-23T03:45:07.617Z,3.6
2016-03-23T03:48:19.375Z,3.6
2016-03-23T03:51:31.291Z,3.5
2016-03-23T03:54:43.129Z,3.4
2016-03-23T03:57:54.949Z,3.3
2016-03-23T04:01:05.020Z,3.3
2016-03-23T04:04:14.809Z,3.3
2016-03-23T04:07:26.817Z,3.2
2016-03-23T04:10:35.077Z,3.2
2016-03-23T04:13:51.805Z,3.1
2016-03-23T04:16:53.688Z,3.1
2016-03-23T04:20:05.570Z,3
2016-03-23T04:23:17.343Z,3
2016-03-23T04:26:28.648Z,3
2016-03-23T04:29:39.331Z,3
2016-03-23T04:32:56.120Z,3
2016-03-23T04:36:02.081Z,2.9
2016-03-23T04:39:09.825Z,2.8
2016-03-23T04:42:21.645Z,2.7
2016-03-23T04:45:31.372Z,2.7
2016-03-23T04:48:43.195Z,2.8
2016-03-23T04:51:55.499Z,2.7
2016-03-23T04:55:05.211Z,2.7
2016-03-23T04:58:17.063Z,2.7
2016-03-23T05:01:29.102Z,2.6
2016-03-23T05:04:37.612Z,2.6
2016-03-23T05:07:51.278Z,2.5
2016-03-23T05:10:58.192Z,2.4
2016-03-23T05:13:59.980Z,2.4
2016-03-23T05:17:11.789Z,2.3
2016-03-23T05:20:23.406Z,2.3
2016-03-23T05:23:33.632Z,2.3
2016-03-23T05:26:48.914Z,2.4
2016-03-23T05:29:55.667Z,2.3
2016-03-23T05:32:57.533Z,2.3
2016-03-23T05:36:09.384Z,2.2
2016-03-23T05:39:25.329Z,2.2
2016-03-23T05:42:32.977Z,2.1
2016-03-23T05:45:41.441Z,2.1
2016-03-23T05:48:58.324Z,2.1
2016-03-23T05:52:00.114Z,2.1
2016-03-23T05:55:11.512Z,2.1
2016-03-23T05:58:23.318Z,2.2
2016-03-23T06:01:34.187Z,2.2
2016-03-23T06:04:51.055Z,2.2
2016-03-23T06:07:57.754Z,2.1
2016-03-23T06:10:59.513Z,2.1
2016-03-23T06:14:10.131Z,2.1
2016-03-23T06:17:22.028Z,2.1
2016-03-23T06:20:31.022Z,2
2016-03-23T06:23:42.360Z,2.1
2016-03-23T06:29:58.798Z,2.1
2016-03-23T06:33:08.635Z,2.2
2016-03-23T06:36:18.893Z,2.2
2016-03-23T06:39:28.182Z,2.3
2016-03-23T06:42:38.161Z,2.3
2016-03-23T06:45:52.404Z,2.3
2016-03-23T06:48:54.145Z,2.4
2016-03-23T06:52:05.997Z,2.5
2016-03-23T06:55:16.991Z,2.5
2016-03-23T06:58:27.702Z,2.5
2016-03-23T07:01:39.369Z,2.6
2016-03-23T07:04:53.096Z,2.6
2016-03-23T07:07:54.790Z,2.5
2016-03-23T07:11:00.940Z,2.5
2016-03-23T07:14:14.823Z,2.6
2016-03-23T07:17:24.659Z,2.5
2016-03-23T07:20:38.731Z,2.6
2016-03-23T07:23:55.631Z,2.6
2016-03-23T07:26:57.655Z,2.7
2016-03-23T07:30:09.694Z,2.8
2016-03-23T07:33:21.608Z,2.8
2016-03-23T07:36:33.132Z,2.8
2016-03-23T07:39:43.657Z,2.9
2016-03-23T07:42:55.509Z,3
2016-03-23T07:46:07.456Z,3
2016-03-23T07:49:19.339Z,3
2016-03-23T07:52:30.456Z,3
2016-03-23T07:55:42.122Z,3
2016-03-23T07:58:53.881Z,3.1
2016-03-23T08:02:05.811Z,3.3
2016-03-23T08:05:15.819Z,3.4
2016-03-23T08:08:27.483Z,3.5
2016-03-23T08:11:37.478Z,3.5
2016-03-23T08:14:53.206Z,3.6
2016-03-23T08:17:55.182Z,3.6
2016-03-23T08:21:07.128Z,3.6
2016-03-23T08:24:17.417Z,3.6
2016-03-23T08:27:29.331Z,3.7
2016-03-23T08:30:41.249Z,3.8
2016-03-23T08:33:55.944Z,3.8
2016-03-23T08:36:57.843Z,3.9
2016-03-23T08:40:09.585Z,3.9
2016-03-23T08:43:21.609Z,3.9
2016-03-23T08:46:30.398Z,3.9
2016-03-23T08:49:40.643Z,4.1
2016-03-23T08:52:54.667Z,4.3
2016-03-23T08:55:56.769Z,4.3
2016-03-23T08:59:08.667Z,4.4
2016-03-23T09:02:20.411Z,4.6
2016-03-23T09:05:32.605Z,4.7
2016-03-23T09:08:49.835Z,4.9
2016-03-23T09:11:56.921Z,5.1
2016-03-23T09:14:59.163Z,5.3
2016-03-23T09:18:09.125Z,5.7
2016-03-23T09:21:19.304Z,5.7
2016-03-23T09:24:28.220Z,6.3
2016-03-23T09:27:39.527Z,7.2
2016-03-23T09:30:56.831Z,7.5
2016-03-23T09:33:59.278Z,7.5
2016-03-23T09:37:10.176Z,8.3
2016-03-23T09:40:20.559Z,10.3
2016-03-23T09:43:35.020Z,10
2016-03-23T09:46:51.954Z,9.6
2016-03-23T09:49:54.320Z,9.6
2016-03-23T09:53:03.390Z,9.6
2016-03-23T09:56:15.540Z,9.5
2016-03-23T09:59:24.064Z,9.3
2016-03-23T10:02:36.258Z,9
2016-03-23T10:05:53.597Z,8.9
2016-03-23T10:08:55.825Z,8.7
2016-03-23T10:12:04.332Z,8.5
2016-03-23T10:15:16.403Z,8.3
2016-03-23T10:18:25.723Z,8.2
2016-03-23T10:21:35.545Z,8.1
2016-03-23T10:24:52.493Z,7.9
2016-03-23T10:27:54.469Z,7.5
2016-03-23T10:31:04.774Z,7
2016-03-23T10:34:16.063Z,6.6
2016-03-23T10:37:25.712Z,6.4
2016-03-23T10:40:35.721Z,6.2
2016-03-23T10:43:52.277Z,6.1
2016-03-23T10:46:54.255Z,6.2
2016-03-23T10:50:05.575Z,6.4
2016-03-23T10:53:16.895Z,6.7
2016-03-23T10:56:28.810Z,6.9
2016-03-23T10:59:38.477Z,7.1
2016-03-23T11:02:55.444Z,7.2
2016-03-23T11:05:57.560Z,7.4
2016-03-23T11:09:07.553Z,7.3
2016-03-23T11:12:19.640Z,7.2
2016-03-23T11:15:31.647Z,7.3
2016-03-23T11:18:41.065Z,7.1
2016-03-23T11:21:56.604Z,7.1
2016-03-23T11:24:58.658Z,7
2016-03-23T11:28:08.495Z,6.9
2016-03-23T11:31:20.394Z,6.6
2016-03-23T11:34:32.511Z,6.5
2016-03-23T11:37:49.569Z,6.5
2016-03-23T11:40:56.701Z,6.7
2016-03-23T11:43:58.928Z,6.9
2016-03-23T11:47:10.827Z,6.8
2016-03-23T11:50:22.788Z,6.8
2016-03-23T11:53:34.625Z,6.8
2016-03-23T11:56:51.495Z,6.6
2016-03-23T11:59:58.565Z,6.6
2016-03-23T12:03:00.480Z,6.5
2016-03-23T12:06:12.394Z,6.4
2016-03-23T12:09:24.308Z,6.4
2016-03-23T12:12:36.316Z,6.3
2016-03-23T12:15:51.296Z,6.2
2016-03-23T12:18:58.226Z,6.2
2016-03-23T12:22:00.218Z,6.3
2016-03-23T12:25:09.273Z,6.3
2016-03-23T12:28:17.484Z,6.4
2016-03-23T12:31:28.320Z,6.5
2016-03-23T12:34:38.735Z,6.5
2016-03-23T12:37:55.511Z,6.5
2016-03-23T12:40:57.629Z,6.5
2016-03-23T12:44:09.605Z,6.5
2016-03-23T12:47:21.676Z,6.5
2016-03-23T12:50:33.762Z,6.5
2016-03-23T12:53:50.460Z,6.5
2016-03-23T12:56:57.578Z,6.5
2016-03-23T12:59:59.539Z,6.4
2016-03-23T13:03:10.328Z,6.4
2016-03-23T13:06:22.227Z,6.5
2016-03-23T13:09:30.658Z,6.4
2016-03-23T13:12:42.527Z,6.4
2016-03-23T13:15:54.457Z,6.5
2016-03-23T13:19:06.591Z,6.5
2016-03-23T13:22:18.583Z,6.5
2016-03-23T13:25:28.700Z,6.5
2016-03-23T13:28:42.914Z,6.4
2016-03-23T13:31:54.797Z,6.5
2016-03-23T13:35:02.289Z,6.5
2016-03-23T13:38:16.813Z,6.5
2016-03-23T13:41:26.228Z,6.6
2016-03-23T13:44:37.752Z,6.7
2016-03-23T13:47:55.012Z,6.7
2016-03-23T13:50:57.192Z,6.6
2016-03-23T13:54:09.465Z,6.5
2016-03-23T13:57:20.817Z,6.4
2016-03-23T14:00:31.295Z,6.3
2016-03-23T14:03:43.430Z,6.4
2016-03-23T14:06:57.016Z,6.5
2016-03-23T14:09:59.149Z,6.6
2016-03-23T14:13:09.002Z,6.6
2016-03-23T14:16:20.930Z,6.7
2016-03-23T14:19:33.033Z,6.8
2016-03-23T14:22:49.799Z,6.8
2016-03-23T14:25:56.826Z,6.8
2016-03-23T14:28:59.117Z,6.9
2016-03-23T14:32:11.182Z,6.8
2016-03-23T14:35:20.604Z,6.8
2016-03-23T14:38:29.732Z,6.8
2016-03-23T14:41:38.456Z,6.7
2016-03-23T14:44:54.793Z,6.7
2016-03-23T14:47:56.988Z,6.8
2016-03-23T14:51:06.637Z,6.6
2016-03-23T14:54:16.255Z,6.6
2016-03-23T14:57:28.325Z,6.6
2016-03-23T15:00:40.145Z,6.5
2016-03-23T15:03:55.485Z,6.5
2016-03-23T15:06:57.493Z,6.6
2016-03-23T15:10:06.672Z,6.6
2016-03-23T15:13:18.743Z,6.6
2016-03-23T15:16:30.096Z,6.5
2016-03-23T15:19:41.353Z,6.5
2016-03-23T15:22:58.489Z,6.4
2016-03-23T15:26:00.622Z,6.4
2016-03-23T15:29:10.755Z,6.3
2016-03-23T15:32:22.466Z,6.3
2016-03-23T15:35:31.396Z,6.3
2016-03-23T15:38:42.560Z,6.3
2016-03-23T15:41:59.009Z,6.3
2016-03-23T15:45:01.204Z,6.3
2016-03-23T15:48:13.649Z,6.3
2016-03-23T15:51:23.798Z,6.4
2016-03-23T15:54:33.634Z,6.3
2016-03-23T15:57:52.598Z,6.3
2016-03-23T16:00:54.782Z,6.3
2016-03-23T16:04:06.915Z,6.2
2016-03-23T16:07:18.924Z,6.1
2016-03-23T16:10:31.103Z,6.1
2016-03-23T16:13:41.439Z,6.1
2016-03-23T16:16:58.403Z,6.1
2016-03-23T16:20:00.302Z,6
2016-03-23T16:23:12.232Z,5.9
2016-03-23T16:26:24.069Z,5.9
2016-03-23T16:29:36.170Z,5.8
2016-03-23T16:32:52.915Z,5.8
2016-03-23T16:35:55.126Z,5.8
2016-03-23T16:39:04.603Z,5.7
2016-03-23T16:42:16.580Z,5.7
2016-03-23T16:45:26.228Z,5.7
2016-03-23T16:48:37.003Z,5.7
2016-03-23T16:51:53.747Z,5.7
2016-03-23T16:54:55.866Z,5.7
2016-03-23T16:58:07.904Z,5.7
2016-03-23T17:01:20.021Z,5.7
2016-03-23T17:04:32.061Z,5.6
2016-03-23T17:07:41.227Z,5.6
2016-03-23T17:10:58.159Z,5.5
2016-03-23T17:14:00.198Z,5.5
2016-03-23T17:17:09.754Z,5.4
2016-03-23T17:20:21.871Z,5.3
2016-03-23T17:23:33.816Z,5.2
2016-03-23T17:26:50.514Z,5.1
2016-03-23T17:29:57.475Z,5
2016-03-23T17:32:59.469Z,5
2016-03-23T17:36:09.086Z,4.9
2016-03-23T17:39:20.438Z,4.9
2016-03-23T17:42:31.446Z,4.8
2016-03-23T17:45:40.938Z,4.8
2016-03-23T17:48:57.980Z,4.8
2016-03-23T17:52:00.098Z,4.8
2016-03-23T17:55:12.059Z,4.8
2016-03-23T17:58:21.942Z,4.8
2016-03-23T18:01:36.762Z,4.7
2016-03-23T18:04:44.520Z,4.8
2016-03-23T18:07:56.531Z,4.8
2016-03-23T18:11:08.539Z,4.8
2016-03-23T18:14:20.283Z,4.8
2016-03-23T18:17:32.337Z,4.8
2016-03-23T18:20:41.891Z,4.7
2016-03-23T18:23:58.575Z,4.7
2016-03-23T18:27:00.645Z,4.7
2016-03-23T18:30:12.731Z,4.7
2016-03-23T18:33:24.802Z,4.7
2016-03-23T18:36:40.684Z,4.7
2016-03-23T18:39:53.317Z,4.7
2016-03-23T18:42:55.357Z,4.7
2016-03-23T18:46:07.383Z,4.7
2016-03-23T18:49:17.845Z,4.6
2016-03-23T18:52:28.119Z,4.6
2016-03-23T18:55:37.471Z,4.7
2016-03-23T18:58:54.151Z,4.7
2016-03-23T19:01:56.393Z,4.7
2016-03-23T19:05:07.795Z,4.7
2016-03-23T19:08:19.943Z,4.7
2016-03-23T19:11:35.795Z,4.7
2016-03-23T19:14:43.725Z,4.7
2016-03-23T19:17:58.327Z,4.7
2016-03-23T19:21:00.349Z,4.7
2016-03-23T19:24:12.251Z,4.7
2016-03-23T19:27:24.181Z,4.7
2016-03-23T19:30:35.673Z,4.7
2016-03-23T19:33:52.667Z,4.7
2016-03-23T19:36:59.596Z,4.6
2016-03-23T19:40:01.667Z,4.6
2016-03-23T19:43:13.615Z,4.6
2016-03-23T19:46:25.608Z,4.6
2016-03-23T19:49:37.147Z,4.5
2016-03-23T19:52:50.546Z,4.5
2016-03-23T19:55:57.522Z,4.4
2016-03-23T19:58:59.499Z,4.3
2016-03-23T20:02:11.292Z,4.2
2016-03-23T20:05:22.362Z,4
2016-03-23T20:08:34.261Z,3.9
2016-03-23T20:11:44.362Z,3.8
2016-03-23T20:14:55.879Z,3.7
2016-03-23T20:18:07.688Z,3.6
2016-03-23T20:21:19.215Z,3.5
2016-03-23T20:24:28.817Z,3.5
2016-03-23T20:27:42.981Z,3.4
2016-03-23T20:30:56.801Z,3.4
2016-03-23T20:33:58.809Z,3.4
2016-03-23T20:37:10.598Z,3.4
2016-03-23T20:40:22.454Z,3.4
2016-03-23T20:43:34.805Z,3.4
2016-03-23T20:46:51.594Z,3.3
2016-03-23T20:49:59.071Z,3.2
2016-03-23T20:53:00.438Z,3.2
2016-03-23T20:56:12.278Z,3.1
2016-03-23T20:59:21.693Z,3.1
2016-03-23T21:02:31.201Z,3
2016-03-23T21:05:40.709Z,2.9
2016-03-23T21:08:56.252Z,2.8
2016-03-23T21:11:58.104Z,2.7
2016-03-23T21:15:09.940Z,2.7
2016-03-23T21:18:21.436Z,2.7
2016-03-23T21:21:33.256Z,2.7
2016-03-23T21:24:45.249Z,2.7
2016-03-23T21:27:56.882Z,2.8
2016-03-23T21:31:08.234Z,2.8
2016-03-23T21:34:20.260Z,2.8
2016-03-23T21:37:30.189Z,2.8
2016-03-23T21:40:44.229Z,2.8
2016-03-23T21:43:59.315Z,2.8
2016-03-23T21:47:01.339Z,2.7
2016-03-23T21:50:12.255Z,2.7
2016-03-23T21:53:22.451Z,2.7
2016-03-23T21:56:32.568Z,2.7
2016-03-23T21:59:44.779Z,2.7
2016-03-23T22:02:56.709Z,2.7
2016-03-23T22:06:06.828Z,2.7
2016-03-23T22:09:18.822Z,2.8
2016-03-23T22:12:30.721Z,2.7
2016-03-23T22:15:40.979Z,2.7
2016-03-23T22:18:57.815Z,2.7
2016-03-23T22:21:59.621Z,2.7
2016-03-23T22:25:11.504Z,2.7
2016-03-23T22:28:23.515Z,2.6
2016-03-23T22:31:35.523Z,2.6
2016-03-23T22:34:52.359Z,2.6
2016-03-23T22:37:59.335Z,2.7
2016-03-23T22:41:01.250Z,2.6
2016-03-23T22:44:12.773Z,2.7
2016-03-23T22:47:24.862Z,2.7
2016-03-23T22:50:36.902Z,2.7
2016-03-23T22:53:44.957Z,2.7
2016-03-23T22:56:59.840Z,2.7
2016-03-23T23:00:01.801Z,2.7
2016-03-23T23:03:10.262Z,2.7
2016-03-23T23:06:22.320Z,2.7
2016-03-23T23:09:31.483Z,2.7
2016-03-23T23:12:43.508Z,2.6
2016-03-23T23:16:00.359Z,2.6
2016-03-23T23:19:02.117Z,2.5
2016-03-23T23:22:11.720Z,2.4
2016-03-23T23:25:20.386Z,2.3
2016-03-23T23:28:31.923Z,2.2
2016-03-23T23:31:43.124Z,2.2
2016-03-23T23:34:56.907Z,2.1
2016-03-23T23:37:58.708Z,2
2016-03-23T23:41:10.559Z,2
2016-03-23T23:44:19.849Z,1.9
2016-03-23T23:47:31.871Z,1.8
2016-03-23T23:50:40.239Z,1.8
2016-03-23T23:53:54.326Z,1.7
2016-03-23T23:56:56.286Z,1.7
